createdAt,value
2022-12-23T00:02:07.527Z,79.93
2022-12-23T00:04:35.560Z,80.80
2022-12-23T00:07:03.935Z,85.18
2022-12-23T00:09:31.689Z,81.13
2022-12-23T00:16:24.992Z,78.53
2022-12-23T00:18:53.778Z,77.85
2022-12-23T00:21:21.939Z,79.25
2022-12-23T00:23:51.503Z,83.22
2022-12-23T00:26:23.014Z,78.68
2022-12-23T00:33:45.495Z,56.85
2022-12-23T00:36:38.698Z,54.35
2022-12-23T00:39:26.774Z,54.15
2022-12-23T00:46:51.406Z,56.80
2022-12-23T00:53:21.361Z,57.65
2022-12-23T00:56:16.502Z,63.55
2022-12-23T00:58:44.270Z,59.83
2022-12-23T01:09:14.036Z,64.22
2022-12-23T01:11:47.191Z,66.28
2022-12-23T01:14:15.218Z,67.28
2022-12-23T01:16:43.350Z,65.80
2022-12-23T01:19:12.031Z,67.28
2022-12-23T01:22:32.857Z,69.40
2022-12-23T01:25:00.831Z,64.95
2022-12-23T01:32:24.886Z,62.23
2022-12-23T01:34:55.101Z,66.65
2022-12-23T01:37:22.758Z,63.90
2022-12-23T01:49:23.424Z,52.50
2022-12-23T01:51:52.224Z,56.42
2022-12-23T01:54:19.865Z,58.38
2022-12-23T01:56:50.299Z,58.92
2022-12-23T02:06:52.832Z,64.75
2022-12-23T02:13:35.234Z,56.78
2022-12-23T02:16:17.752Z,56.38
2022-12-23T02:18:51.455Z,56.90
2022-12-23T02:30:56.190Z,60.28
2022-12-23T02:33:40.960Z,60.67
2022-12-23T02:44:06.334Z,58.70
2022-12-23T02:46:46.708Z,56.35
2022-12-23T02:53:54.818Z,50.27
2022-12-23T03:01:15.633Z,51.85
2022-12-23T03:03:46.266Z,54.28
2022-12-23T03:06:39.849Z,53.20
2022-12-23T03:09:08.700Z,55.47
2022-12-23T03:12:15.061Z,55.25
2022-12-23T03:20:16.564Z,49.45
2022-12-23T03:23:55.399Z,54.42
2022-12-23T03:30:34.685Z,55.17
2022-12-23T03:37:55.082Z,56.25
2022-12-23T03:50:19.693Z,46.17
2022-12-23T03:52:53.725Z,47.35
2022-12-23T03:59:36.789Z,47.10
2022-12-23T04:07:00.908Z,44.20
2022-12-23T04:09:29.868Z,46.75
2022-12-23T04:11:58.735Z,48.55
2022-12-23T04:18:59.021Z,46.23
2022-12-23T04:21:27.086Z,45.33
2022-12-23T04:28:34.386Z,46.15
2022-12-23T04:31:02.303Z,46.80
2022-12-23T04:33:31.091Z,47.10
2022-12-23T04:36:01.108Z,50.88
2022-12-23T04:38:29.113Z,49.33
2022-12-23T04:40:56.928Z,46.17
2022-12-23T04:43:24.973Z,47.00
2022-12-23T04:45:53.228Z,45.80
2022-12-23T04:48:21.380Z,47.08
2022-12-23T04:54:57.315Z,44.35
2022-12-23T04:57:49.777Z,47.45
2022-12-23T05:00:18.437Z,44.70
2022-12-23T05:02:46.397Z,46.38
2022-12-23T05:05:16.111Z,47.53
2022-12-23T05:07:43.870Z,46.28
2022-12-23T05:10:12.194Z,43.83
2022-12-23T05:12:39.936Z,44.43
2022-12-23T05:15:08.959Z,49.28
2022-12-23T05:17:36.819Z,64.85
2022-12-23T05:20:05.361Z,64.03
2022-12-23T05:22:33.360Z,61.22
2022-12-23T05:25:01.673Z,56.40
2022-12-23T05:28:00.323Z,56.92
2022-12-23T05:30:28.669Z,55.13
2022-12-23T05:34:14.802Z,52.65
2022-12-23T05:36:43.020Z,55.35
2022-12-23T05:40:02.815Z,76.73
2022-12-23T05:42:31.024Z,87.90
2022-12-23T05:44:58.762Z,137.55
2022-12-23T05:47:27.111Z,138.00
2022-12-23T05:49:54.897Z,127.47
2022-12-23T05:52:23.244Z,128.37
2022-12-23T05:54:53.272Z,111.70
2022-12-23T05:57:21.717Z,103.20
2022-12-23T05:59:49.419Z,93.20
2022-12-23T06:02:17.846Z,82.15
2022-12-23T06:04:45.784Z,75.53
2022-12-23T06:07:15.973Z,78.22
2022-12-23T06:09:43.840Z,79.90
2022-12-23T06:12:12.219Z,75.55
2022-12-23T06:15:55.548Z,68.28
2022-12-23T06:19:14.709Z,64.37
2022-12-23T06:26:17.505Z,57.75
2022-12-23T06:48:32.273Z,59.35
2022-12-23T06:51:02.198Z,67.13
2022-12-23T06:53:36.250Z,69.95
2022-12-23T06:56:30.349Z,70.33
2022-12-23T06:58:58.431Z,82.13
2022-12-23T07:01:26.862Z,94.90
2022-12-23T07:03:59.073Z,108.78
2022-12-23T07:06:27.426Z,112.43
2022-12-23T07:08:56.440Z,136.57
2022-12-23T07:12:16.853Z,123.53
2022-12-23T07:14:46.691Z,105.57
2022-12-23T07:17:27.361Z,142.98
2022-12-23T07:19:57.285Z,142.13
2022-12-23T07:22:26.101Z,116.43
2022-12-23T07:24:54.434Z,103.95
2022-12-23T07:27:25.621Z,97.32
2022-12-23T07:29:55.271Z,83.93
2022-12-23T07:32:25.261Z,94.78
2022-12-23T07:34:53.584Z,88.50
2022-12-23T07:37:27.993Z,74.50
2022-12-23T07:40:06.495Z,81.00
2022-12-23T07:42:45.663Z,87.55
2022-12-23T07:46:08.994Z,98.82
2022-12-23T07:48:49.770Z,89.43
2022-12-23T07:51:18.423Z,95.10
2022-12-23T07:53:51.619Z,89.90
2022-12-23T07:56:20.427Z,81.72
2022-12-23T07:59:20.302Z,66.40
2022-12-23T08:01:51.177Z,60.67
2022-12-23T08:04:21.118Z,56.25
2022-12-23T08:06:49.241Z,53.38
2022-12-23T08:09:22.529Z,54.75
2022-12-23T08:11:54.341Z,52.92
2022-12-23T08:14:24.569Z,53.53
2022-12-23T08:17:05.605Z,51.97
2022-12-23T08:19:43.250Z,51.83
2022-12-23T08:22:11.350Z,53.20
2022-12-23T08:24:40.588Z,54.20
2022-12-23T08:27:08.777Z,52.93
2022-12-23T08:29:36.896Z,55.65
2022-12-23T08:32:04.998Z,52.00
2022-12-23T08:34:33.575Z,55.85
2022-12-23T08:37:01.687Z,54.38
2022-12-23T08:39:30.102Z,53.73
2022-12-23T08:41:58.340Z,56.53
2022-12-23T08:44:28.321Z,58.33
2022-12-23T08:46:56.430Z,58.50
2022-12-23T08:49:24.687Z,58.47
2022-12-23T08:51:52.654Z,55.93
2022-12-23T08:54:21.197Z,56.17
2022-12-23T08:56:49.526Z,57.08
2022-12-23T08:59:20.199Z,55.03
2022-12-23T09:01:49.150Z,49.58
2022-12-23T09:04:17.626Z,44.33
2022-12-23T09:06:46.027Z,47.50
2022-12-23T09:09:16.294Z,53.42
2022-12-23T09:11:44.894Z,51.42
2022-12-23T09:14:13.945Z,52.00
2022-12-23T09:16:42.089Z,51.23
2022-12-23T09:19:10.524Z,53.00
2022-12-23T09:21:38.478Z,51.85
2022-12-23T09:24:10.373Z,52.47
2022-12-23T09:26:39.047Z,49.25
2022-12-23T09:29:07.136Z,51.83
2022-12-23T09:31:37.725Z,65.85
2022-12-23T09:34:06.928Z,53.25
2022-12-23T09:36:34.982Z,49.75
2022-12-23T09:39:04.282Z,48.72
2022-12-23T09:42:08.167Z,50.33
2022-12-23T09:44:39.480Z,53.78
2022-12-23T09:47:13.646Z,54.20
2022-12-23T09:49:49.249Z,49.03
2022-12-23T09:52:24.649Z,54.00
2022-12-23T09:54:55.571Z,55.07
2022-12-23T09:58:01.477Z,52.67
2022-12-23T10:00:43.358Z,50.67
2022-12-23T10:03:24.413Z,50.72
2022-12-23T10:06:21.312Z,49.28
2022-12-23T10:08:53.717Z,44.40
2022-12-23T10:11:26.509Z,46.10
2022-12-23T10:14:03.440Z,51.13
2022-12-23T10:16:43.863Z,48.03
2022-12-23T10:19:29.407Z,48.97
2022-12-23T10:22:10.616Z,51.07
2022-12-23T10:24:46.768Z,46.28
2022-12-23T10:27:27.788Z,42.85
2022-12-23T10:30:06.086Z,46.45
2022-12-23T10:33:30.189Z,43.75
2022-12-23T10:36:23.872Z,46.77
2022-12-23T10:39:05.660Z,44.80
2022-12-23T10:41:49.552Z,66.88
2022-12-23T10:44:23.768Z,74.93
2022-12-23T10:47:43.755Z,60.20
2022-12-23T10:50:50.583Z,45.20
2022-12-23T10:53:30.773Z,42.53
2022-12-23T10:56:00.262Z,43.88
2022-12-23T10:58:28.172Z,45.75
2022-12-23T11:01:00.483Z,44.88
2022-12-23T11:03:38.712Z,42.67
2022-12-23T11:06:09.709Z,43.80
2022-12-23T11:08:39.647Z,41.78
2022-12-23T11:11:08.055Z,42.60
2022-12-23T11:13:42.154Z,42.28
2022-12-23T11:16:25.808Z,44.07
2022-12-23T11:19:03.342Z,39.92
2022-12-23T11:21:33.456Z,39.35
2022-12-23T11:24:19.916Z,38.65
2022-12-23T11:27:03.695Z,38.75
2022-12-23T11:29:40.648Z,40.47
2022-12-23T11:32:26.635Z,43.13
2022-12-23T11:34:57.355Z,44.50
2022-12-23T11:37:41.291Z,38.40
2022-12-23T11:40:29.858Z,40.38
2022-12-23T11:43:05.122Z,39.43
2022-12-23T11:45:37.090Z,39.00
2022-12-23T11:48:07.336Z,41.25
2022-12-23T11:50:39.271Z,41.78
2022-12-23T11:53:15.317Z,46.92
2022-12-23T11:56:00.010Z,41.57
2022-12-23T11:58:30.919Z,41.35
2022-12-23T12:01:01.777Z,44.40
2022-12-23T12:03:38.967Z,40.08
2022-12-23T12:06:08.349Z,40.15
2022-12-23T12:08:38.607Z,39.87
2022-12-23T12:11:15.558Z,41.63
2022-12-23T12:13:48.326Z,41.72
2022-12-23T12:16:32.650Z,41.15
2022-12-23T12:19:08.014Z,42.90
2022-12-23T12:21:38.657Z,44.30
2022-12-23T12:24:24.127Z,46.30
2022-12-23T12:26:54.849Z,45.88
2022-12-23T12:29:30.017Z,47.38
2022-12-23T12:32:00.819Z,49.00
2022-12-23T12:34:43.198Z,48.27
2022-12-23T12:37:25.487Z,45.20
2022-12-23T12:40:17.208Z,47.28
2022-12-23T12:42:53.573Z,51.88
2022-12-23T12:45:25.689Z,46.42
2022-12-23T12:48:31.077Z,46.43
2022-12-23T12:51:23.301Z,43.00
2022-12-23T12:54:06.346Z,42.97
2022-12-23T12:56:41.915Z,43.45
2022-12-23T12:59:17.778Z,45.00
2022-12-23T13:01:53.635Z,46.17
2022-12-23T13:04:47.214Z,46.95
2022-12-23T13:07:27.590Z,46.35
2022-12-23T13:10:08.058Z,45.92
2022-12-23T13:12:54.979Z,48.05
2022-12-23T13:15:38.465Z,47.73
2022-12-23T13:18:15.935Z,55.28
2022-12-23T13:20:57.303Z,52.53
2022-12-23T13:23:59.249Z,53.20
2022-12-23T13:26:31.971Z,47.50
2022-12-23T13:29:41.614Z,59.47
2022-12-23T13:32:35.773Z,60.30
2022-12-23T13:35:40.984Z,56.55
2022-12-23T13:38:34.067Z,48.42
2022-12-23T13:41:12.256Z,51.83
2022-12-23T13:44:07.857Z,53.40
2022-12-23T13:46:53.371Z,63.63
2022-12-23T13:49:25.545Z,63.35
2022-12-23T13:52:54.348Z,61.47
2022-12-23T13:55:45.075Z,58.45
2022-12-23T13:58:22.680Z,66.10
2022-12-23T14:01:32.982Z,71.65
2022-12-23T14:04:36.460Z,75.68
2022-12-23T14:07:21.152Z,78.38
2022-12-23T14:10:16.909Z,80.57
2022-12-23T14:12:45.589Z,98.57
2022-12-23T14:15:37.382Z,109.45
2022-12-23T14:18:11.550Z,89.10
2022-12-23T14:20:57.985Z,75.60
2022-12-23T14:23:40.801Z,70.43
2022-12-23T14:26:11.997Z,68.27
2022-12-23T14:29:03.015Z,72.97
2022-12-23T14:31:39.305Z,75.68
2022-12-23T14:34:23.701Z,78.35
2022-12-23T14:37:29.038Z,75.30
2022-12-23T14:39:58.968Z,71.80
2022-12-23T14:42:47.757Z,74.63
2022-12-23T14:45:42.397Z,71.50
2022-12-23T14:48:44.927Z,65.40
2022-12-23T14:51:15.857Z,63.83
2022-12-23T14:53:54.067Z,65.10
2022-12-23T14:56:26.914Z,65.95
2022-12-23T14:59:04.556Z,68.20
2022-12-23T15:01:58.940Z,58.72
2022-12-23T15:04:35.915Z,56.10
2022-12-23T15:07:12.637Z,56.83
2022-12-23T15:09:58.658Z,59.17
2022-12-23T15:12:36.935Z,57.80
2022-12-23T15:15:23.744Z,61.90
2022-12-23T15:18:03.812Z,70.22
2022-12-23T15:20:32.392Z,67.73
2022-12-23T15:23:02.254Z,68.63
2022-12-23T15:25:33.392Z,75.22
2022-12-23T15:28:03.893Z,68.78
2022-12-23T15:30:38.077Z,76.22
2022-12-23T15:33:34.950Z,69.57
2022-12-23T15:35:58.478Z,77.47
2022-12-23T15:38:30.299Z,70.80
2022-12-23T15:41:02.328Z,64.75
2022-12-23T15:43:31.678Z,63.38
2022-12-23T15:46:26.914Z,65.50
2022-12-23T15:48:59.068Z,61.88
2022-12-23T15:54:29.652Z,63.47
2022-12-23T15:57:00.755Z,60.20
2022-12-23T15:59:40.175Z,65.57
2022-12-23T16:05:45.449Z,63.33
2022-12-23T16:08:17.788Z,64.63
2022-12-23T16:11:16.137Z,63.55
2022-12-23T16:14:02.749Z,63.47
2022-12-23T16:16:43.266Z,67.93
2022-12-23T16:19:42.735Z,71.47
2022-12-23T16:22:25.592Z,71.60
2022-12-23T16:25:01.783Z,72.80
2022-12-23T16:27:43.332Z,68.67
2022-12-23T16:30:19.416Z,69.38
2022-12-23T16:32:51.388Z,73.10
2022-12-23T16:35:33.501Z,76.82
2022-12-23T16:38:14.792Z,79.32
2022-12-23T16:40:45.032Z,94.93
2022-12-23T16:43:16.306Z,92.85
2022-12-23T16:45:47.418Z,73.20
2022-12-23T16:48:24.363Z,69.85
2022-12-23T16:50:53.895Z,67.90
2022-12-23T16:53:22.176Z,70.90
2022-12-23T16:55:58.478Z,80.05
2022-12-23T16:58:29.794Z,79.55
2022-12-23T17:00:58.751Z,80.97
2022-12-23T17:03:27.037Z,83.15
2022-12-23T17:05:55.584Z,78.37
2022-12-23T17:08:23.553Z,71.15
2022-12-23T17:10:52.276Z,77.68
2022-12-23T17:13:20.503Z,78.80
2022-12-23T17:15:48.783Z,70.28
2022-12-23T17:18:19.154Z,71.53
2022-12-23T17:20:49.944Z,71.70
2022-12-23T17:23:24.224Z,72.10
2022-12-23T17:25:52.907Z,70.28
2022-12-23T17:28:21.090Z,60.28
2022-12-23T17:30:55.531Z,62.93
2022-12-23T17:33:29.939Z,70.43
2022-12-23T17:35:59.563Z,69.70
2022-12-23T17:38:30.818Z,71.22
2022-12-23T17:40:59.280Z,70.55
2022-12-23T17:43:28.167Z,70.77
2022-12-23T17:45:59.688Z,71.90
2022-12-23T17:48:31.594Z,66.72
2022-12-23T17:51:03.409Z,61.78
2022-12-23T17:53:31.707Z,57.75
2022-12-23T17:56:00.327Z,54.60
2022-12-23T17:58:28.493Z,55.72
2022-12-23T18:00:56.967Z,58.28
2022-12-23T18:03:25.286Z,56.03
2022-12-23T18:06:01.199Z,59.40
2022-12-23T18:08:31.636Z,59.30
2022-12-23T18:11:00.681Z,53.20
2022-12-23T18:13:29.588Z,52.65
2022-12-23T18:15:58.203Z,51.97
2022-12-23T18:18:33.328Z,51.33
2022-12-23T18:21:20.216Z,52.07
2022-12-23T18:23:48.885Z,53.30
2022-12-23T18:26:17.325Z,61.60
2022-12-23T18:28:45.747Z,61.05
2022-12-23T18:31:27.931Z,56.63
2022-12-23T18:33:56.409Z,54.63
2022-12-23T18:36:30.940Z,53.60
2022-12-23T18:38:59.121Z,55.08
2022-12-23T18:41:27.987Z,54.40
2022-12-23T18:43:56.284Z,55.28
2022-12-23T18:46:24.811Z,53.97
2022-12-23T18:48:52.953Z,51.08
2022-12-23T18:51:22.641Z,50.10
2022-12-23T18:53:51.586Z,51.85
2022-12-23T18:56:24.885Z,43.25
2022-12-23T18:58:53.234Z,46.87
2022-12-23T19:01:21.485Z,44.30
2022-12-23T19:03:49.366Z,43.75
2022-12-23T19:06:17.791Z,43.63
2022-12-23T19:08:45.648Z,44.05
2022-12-23T19:11:17.104Z,44.17
2022-12-23T19:13:46.210Z,46.08
2022-12-23T19:16:57.892Z,46.53
2022-12-23T19:26:07.648Z,45.30
2022-12-23T19:28:49.075Z,46.28
2022-12-23T19:36:00.866Z,46.85
2022-12-23T19:38:48.113Z,56.42
2022-12-23T19:41:16.511Z,57.07
2022-12-23T19:43:46.330Z,69.35
2022-12-23T19:46:16.034Z,83.70
2022-12-23T19:48:49.567Z,96.68
2022-12-23T19:51:17.964Z,92.30
2022-12-23T19:53:46.655Z,92.43
2022-12-23T19:56:21.486Z,92.53
2022-12-23T19:58:50.604Z,79.13
2022-12-23T20:01:21.282Z,79.47
2022-12-23T20:03:50.326Z,80.47
2022-12-23T20:06:19.979Z,85.30
2022-12-23T20:08:50.913Z,87.30
2022-12-23T20:11:26.632Z,87.70
2022-12-23T20:13:55.828Z,84.35
2022-12-23T20:16:24.447Z,90.55
2022-12-23T20:18:52.980Z,79.40
2022-12-23T20:21:22.030Z,73.95
2022-12-23T20:23:50.573Z,76.43
2022-12-23T20:26:20.225Z,69.30
2022-12-23T20:28:48.438Z,70.55
2022-12-23T20:31:22.958Z,68.97
2022-12-23T20:33:52.556Z,53.45
2022-12-23T20:36:27.359Z,51.58
2022-12-23T20:38:56.637Z,53.38
2022-12-23T20:41:27.332Z,54.03
2022-12-23T20:46:44.198Z,45.63
2022-12-23T20:49:12.626Z,46.08
2022-12-23T20:51:41.361Z,46.35
2022-12-23T20:54:09.764Z,61.03
2022-12-23T20:56:38.089Z,60.40
2022-12-23T20:59:06.201Z,70.78
2022-12-23T21:01:38.421Z,75.70
2022-12-23T21:04:08.943Z,74.63
2022-12-23T21:06:37.782Z,72.38
2022-12-23T21:09:07.870Z,62.53
2022-12-23T21:11:39.595Z,63.65
2022-12-23T21:14:08.109Z,67.78
2022-12-23T21:16:38.465Z,68.35
2022-12-23T21:19:09.074Z,65.15
2022-12-23T21:21:37.299Z,68.50
2022-12-23T21:24:05.643Z,65.97
2022-12-23T21:26:35.567Z,64.53
2022-12-23T21:29:05.691Z,60.47
2022-12-23T21:31:36.676Z,67.43
2022-12-23T21:34:05.477Z,76.30
2022-12-23T21:36:37.651Z,69.57
2022-12-23T21:39:07.805Z,64.53
2022-12-23T21:41:38.592Z,62.05
2022-12-23T21:44:06.330Z,62.72
2022-12-23T21:46:34.959Z,65.50
2022-12-23T21:49:03.117Z,69.03
2022-12-23T21:51:41.969Z,65.70
2022-12-23T21:54:11.792Z,62.72
2022-12-23T21:56:40.665Z,71.60
2022-12-23T21:59:12.871Z,76.30
2022-12-23T22:01:42.830Z,76.75
2022-12-23T22:04:10.821Z,76.15
2022-12-23T22:06:44.103Z,71.82
2022-12-23T22:09:21.117Z,71.10
2022-12-23T22:11:49.712Z,72.33
2022-12-23T22:14:19.834Z,71.88
2022-12-23T22:16:48.246Z,72.18
2022-12-23T22:19:16.507Z,71.90
2022-12-23T22:21:45.893Z,69.90
2022-12-23T22:24:13.717Z,73.00
2022-12-23T22:26:42.323Z,76.45
2022-12-23T22:29:11.579Z,75.75
2022-12-23T22:31:49.078Z,73.43
2022-12-23T22:34:19.862Z,72.40
2022-12-23T22:36:49.255Z,73.93
2022-12-23T22:39:20.958Z,73.32
2022-12-23T22:41:53.001Z,75.95
2022-12-23T22:44:21.992Z,71.40
2022-12-23T22:46:50.532Z,73.63
2022-12-23T22:49:18.957Z,72.00
2022-12-23T22:51:47.214Z,70.10
2022-12-23T22:54:15.073Z,66.05
2022-12-23T22:56:43.672Z,64.35
2022-12-23T22:59:23.042Z,62.83
2022-12-23T23:01:52.773Z,61.70
2022-12-23T23:04:23.680Z,60.90
2022-12-23T23:06:51.926Z,59.33
2022-12-23T23:09:21.795Z,53.42
2022-12-23T23:11:51.909Z,50.53
2022-12-23T23:14:20.534Z,53.87
2022-12-23T23:16:49.120Z,55.97
2022-12-23T23:19:20.749Z,60.47
2022-12-23T23:21:49.414Z,69.25
2022-12-23T23:24:17.153Z,72.70
2022-12-23T23:26:45.381Z,71.53
2022-12-23T23:29:13.384Z,74.00
2022-12-23T23:31:43.275Z,72.22
2022-12-23T23:34:12.903Z,63.17
2022-12-23T23:36:41.308Z,63.20
2022-12-23T23:39:09.280Z,63.20
2022-12-23T23:41:37.459Z,61.97
2022-12-23T23:44:05.466Z,65.80
2022-12-23T23:46:34.801Z,70.43
2022-12-23T23:49:02.671Z,65.80
2022-12-23T23:51:34.489Z,70.73
2022-12-23T23:54:37.882Z,69.57
2022-12-23T23:57:06.089Z,68.80
2022-12-23T23:59:33.786Z,65.35
